Abra Grande, Argentina
Current Conditions -  °F | °C
As of 1:00 AM on Monday 22 Dec 2014 (Local Time) from SANT Reporting Station
Overcast Overcast  
Wind Chill: 18°   Ceiling: 3000
Heat Index: 18°   Visibility: 6mi
Dew Point: 14°   Wind: 2mph
Humidity: 77%   Direction: 250°WSW
Pressure: 30.06"   Gusts: NA
Location:  27.33°S, 64.33°W
Report Text: SANT 220400Z 25002KT 9999 BKN030 OVC10018/14 Q1018
Loading
Personal Weather Stations






























Interactive Weather Map New forecast layout! Learn more

10-Day Weather Forecast

Advertisements
Track Severe Weather on mobile